Time;durP1;ratioP1;P1;durP2;ratioP2;P2;SDS_P1;SDS_P2;PMS_P1;PMS_P2;Temp;Humidity;BMP_temperature;BMP_pressure;BME280_temperature;BME280_humidity;BME280_pressure;Samples;Min_cycle;Max_cycle;Signal;HPM_P1;HPM_P2
2021/06/16 00:00:08;;;;;;;8.80;7.47;;;20.90;82.60;;;;;;6275382;28;20231;-60
2021/06/16 00:03:12;;;;;;;6.40;5.70;;;20.90;82.60;;;;;;6272986;28;20219;-59
2021/06/16 00:06:17;;;;;;;7.63;7.00;;;20.80;82.30;;;;;;6276007;28;20227;-59
2021/06/16 00:09:22;;;;;;;7.70;6.77;;;20.70;82.60;;;;;;6276184;28;20231;-59
2021/06/16 00:12:26;;;;;;;7.10;6.40;;;20.70;82.90;;;;;;6267063;28;20235;-59
2021/06/16 00:15:32;;;;;;;6.90;6.30;;;20.70;83.00;;;;;;6275853;28;20304;-59
2021/06/16 00:18:35;;;;;;;7.43;6.73;;;20.70;83.10;;;;;;6275737;28;20254;-59
2021/06/16 00:21:38;;;;;;;7.70;7.00;;;20.70;83.40;;;;;;6275660;28;20563;-59
2021/06/16 00:24:43;;;;;;;8.27;6.63;;;20.60;82.80;;;;;;6275944;28;20739;-59
2021/06/16 00:27:46;;;;;;;7.80;7.10;;;20.60;82.90;;;;;;6275587;28;20235;-59
2021/06/16 00:30:49;;;;;;;8.00;7.30;;;20.50;83.10;;;;;;6275022;28;20239;-59
2021/06/16 00:33:53;;;;;;;7.47;6.77;;;20.50;83.20;;;;;;6274817;28;20292;-59
2021/06/16 00:36:56;;;;;;;8.00;6.37;;;20.50;83.50;;;;;;6275046;28;20676;-59
2021/06/16 00:40:01;;;;;;;9.10;7.63;;;20.50;83.60;;;;;;6275375;28;20689;-59
2021/06/16 00:43:04;;;;;;;8.00;7.30;;;20.50;83.40;;;;;;6275200;28;20224;-59
2021/06/16 00:46:07;;;;;;;7.10;6.60;;;20.50;83.20;;;;;;6275327;28;20223;-59
2021/06/16 00:49:11;;;;;;;8.23;7.47;;;20.40;83.30;;;;;;6275002;28;20880;-59
2021/06/16 00:52:14;;;;;;;6.33;5.80;;;20.40;83.70;;;;;;6274799;28;20234;-59
2021/06/16 00:55:19;;;;;;;7.90;7.10;;;20.40;84.10;;;;;;6273958;28;20235;-59
2021/06/16 00:58:23;;;;;;;7.80;7.00;;;20.40;84.20;;;;;;6270974;28;20232;-59
2021/06/16 01:01:29;;;;;;;7.20;6.60;;;20.40;84.30;;;;;;6274407;28;20235;-59
2021/06/16 01:04:33;;;;;;;7.00;6.40;;;20.40;84.20;;;;;;6273535;28;20227;-59
2021/06/16 01:07:41;;;;;;;9.83;6.80;;;20.40;85.00;;;;;;6273857;28;20223;-59
2021/06/16 01:10:48;;;;;;;7.80;6.87;;;20.40;84.90;;;;;;6273173;28;20567;-59
2021/06/16 01:13:54;;;;;;;6.73;6.23;;;20.30;85.00;;;;;;6269449;28;20535;-59
2021/06/16 01:17:00;;;;;;;9.40;6.33;;;20.20;84.70;;;;;;6274384;28;20242;-58
2021/06/16 01:20:23;;;;;;;7.33;6.63;;;20.20;85.00;;;;;;6274836;28;20234;-59
2021/06/16 01:23:49;;;;;;;6.80;6.10;;;20.10;85.30;;;;;;6274696;28;20228;-59
2021/06/16 01:26:54;;;;;;;7.10;6.40;;;20.10;85.30;;;;;;6274662;28;20232;-59
2021/06/16 01:29:59;;;;;;;6.63;6.10;;;20.00;85.20;;;;;;6274429;28;20270;-59
2021/06/16 01:33:06;;;;;;;7.07;6.37;;;20.00;85.80;;;;;;6274600;28;20236;-59
2021/06/16 01:36:11;;;;;;;7.57;7.00;;;20.00;85.70;;;;;;6274258;28;20228;-58
2021/06/16 01:39:18;;;;;;;7.10;6.43;;;19.90;86.30;;;;;;6274463;28;20240;-59
2021/06/16 01:42:26;;;;;;;7.23;6.63;;;19.80;86.70;;;;;;6274313;28;20227;-59
2021/06/16 01:45:33;;;;;;;7.20;6.60;;;19.80;87.00;;;;;;6274042;28;20231;-59
2021/06/16 01:48:40;;;;;;;7.57;6.70;;;19.80;86.90;;;;;;6274040;28;20232;-59
2021/06/16 01:51:43;;;;;;;8.83;6.80;;;19.80;87.40;;;;;;6274081;28;20544;-58
2021/06/16 01:54:47;;;;;;;7.00;6.40;;;19.70;87.30;;;;;;6274107;28;20227;-59
2021/06/16 01:57:56;;;;;;;7.20;6.50;;;19.70;87.30;;;;;;6274180;28;20681;-59
2021/06/16 02:01:00;;;;;;;7.70;7.10;;;19.70;88.10;;;;;;6274184;28;20234;-59
2021/06/16 02:04:04;;;;;;;6.73;6.10;;;19.60;88.20;;;;;;6273927;28;20232;-60
2021/06/16 02:07:13;;;;;;;7.70;6.97;;;19.60;88.20;;;;;;6273674;28;20582;-60
2021/06/16 02:10:20;;;;;;;7.20;6.60;;;19.50;88.60;;;;;;6273997;28;20246;-60
2021/06/16 02:13:33;;;;;;;7.57;6.97;;;19.50;89.10;;;;;;6273782;28;20231;-60
2021/06/16 02:16:40;;;;;;;6.53;6.13;;;19.50;89.10;;;;;;6274002;28;20673;-59
2021/06/16 02:19:46;;;;;;;7.37;6.77;;;19.40;88.80;;;;;;6248824;28;20252;-59
2021/06/16 02:22:51;;;;;;;6.73;6.17;;;19.30;89.10;;;;;;6248986;28;20185;-60
2021/06/16 02:25:55;;;;;;;7.57;6.97;;;19.30;89.10;;;;;;6249031;28;20209;-60
2021/06/16 02:29:00;;;;;;;7.07;6.50;;;19.30;89.20;;;;;;6248666;28;20224;-60
2021/06/16 02:32:04;;;;;;;7.43;6.83;;;19.30;89.50;;;;;;6248914;28;20251;-59
2021/06/16 02:35:08;;;;;;;7.73;7.03;;;19.30;89.70;;;;;;6248955;28;20239;-60
2021/06/16 02:38:13;;;;;;;8.20;7.10;;;19.30;89.70;;;;;;6249126;28;20244;-60
2021/06/16 02:41:18;;;;;;;8.53;7.83;;;19.30;89.70;;;;;;6249011;28;20233;-60
2021/06/16 02:44:24;;;;;;;8.27;7.57;;;19.30;89.70;;;;;;6248897;28;20303;-60
2021/06/16 02:47:28;;;;;;;8.10;6.70;;;19.30;90.00;;;;;;6248655;28;20247;-60
2021/06/16 02:50:32;;;;;;;8.53;7.80;;;19.30;90.10;;;;;;6248823;28;20290;-59
2021/06/16 02:53:36;;;;;;;7.10;6.40;;;19.30;90.10;;;;;;6248694;28;20294;-60
2021/06/16 02:56:39;;;;;;;8.10;7.30;;;19.30;90.20;;;;;;6248816;28;20323;-60
2021/06/16 02:59:48;;;;;;;7.10;6.50;;;19.30;90.10;;;;;;6252953;28;20239;-60
2021/06/16 03:02:52;;;;;;;9.07;6.83;;;19.20;90.30;;;;;;6253196;28;20232;-60
2021/06/16 03:05:57;;;;;;;7.87;7.17;;;19.20;90.30;;;;;;6252811;28;20228;-60
2021/06/16 03:09:01;;;;;;;9.23;7.47;;;19.20;90.40;;;;;;6252957;28;20696;-60
2021/06/16 03:12:06;;;;;;;8.23;7.07;;;19.20;90.40;;;;;;6252692;28;20466;-60
2021/06/16 03:15:13;;;;;;;7.40;6.80;;;19.20;90.50;;;;;;6252842;28;20355;-60
2021/06/16 03:18:17;;;;;;;7.60;6.87;;;19.10;90.50;;;;;;6252878;28;20251;-62
2021/06/16 03:21:20;;;;;;;8.33;7.53;;;19.10;90.60;;;;;;6252591;28;20678;-60
2021/06/16 03:24:25;;;;;;;7.50;6.90;;;19.10;90.70;;;;;;6252605;28;20235;-60
2021/06/16 03:27:29;;;;;;;7.33;6.73;;;19.20;90.70;;;;;;6252327;28;20483;-59
2021/06/16 03:30:33;;;;;;;7.97;7.27;;;19.20;90.70;;;;;;6252238;28;20243;-59
2021/06/16 03:33:37;;;;;;;9.10;7.00;;;19.20;90.80;;;;;;6252261;28;20693;-59
2021/06/16 03:36:43;;;;;;;8.77;7.87;;;19.20;90.70;;;;;;6252143;28;20240;-60
2021/06/16 03:39:51;;;;;;;8.40;7.70;;;19.20;90.60;;;;;;6252468;28;20242;-60
2021/06/16 03:42:56;;;;;;;8.17;7.43;;;19.10;90.60;;;;;;6252123;28;20239;-60
2021/06/16 03:46:05;;;;;;;7.53;6.90;;;19.10;90.70;;;;;;6251948;28;20236;-60
2021/06/16 03:49:12;;;;;;;7.50;6.90;;;19.10;90.90;;;;;;6251741;28;20311;-59
2021/06/16 03:52:18;;;;;;;8.90;7.20;;;19.20;91.00;;;;;;6251881;28;20247;-60
2021/06/16 03:55:22;;;;;;;9.80;7.80;;;19.10;90.90;;;;;;6251875;28;20239;-60
2021/06/16 03:58:26;;;;;;;8.17;7.00;;;19.10;91.10;;;;;;6251406;28;20239;-60
2021/06/16 04:01:30;;;;;;;7.37;6.63;;;19.10;91.10;;;;;;6251703;28;20232;-59
2021/06/16 04:04:34;;;;;;;8.27;7.53;;;19.10;91.10;;;;;;6251384;28;20700;-59
2021/06/16 04:07:38;;;;;;;7.97;7.00;;;19.20;91.00;;;;;;6251152;28;20972;-59
2021/06/16 04:10:45;;;;;;;9.93;7.93;;;19.20;90.80;;;;;;6250929;28;20654;-60
2021/06/16 04:13:48;;;;;;;9.10;8.20;;;19.30;91.00;;;;;;6250963;28;20247;-60
2021/06/16 04:16:56;;;;;;;8.13;7.33;;;19.30;90.80;;;;;;6251111;28;20235;-60
2021/06/16 04:19:59;;;;;;;7.90;7.20;;;19.30;90.90;;;;;;6251689;28;20223;-60
2021/06/16 04:23:03;;;;;;;8.57;7.30;;;19.30;91.30;;;;;;6251211;28;20235;-59
2021/06/16 04:26:06;;;;;;;8.10;7.40;;;19.40;91.00;;;;;;6242172;28;20708;-59
2021/06/16 04:29:09;;;;;;;7.53;6.83;;;19.50;90.70;;;;;;6250337;28;20682;-59
2021/06/16 04:32:14;;;;;;;8.43;7.47;;;19.60;90.70;;;;;;6251235;28;20228;-59
2021/06/16 04:35:18;;;;;;;9.87;6.90;;;19.70;90.50;;;;;;6250795;28;20231;-59
2021/06/16 04:38:21;;;;;;;8.07;7.07;;;19.80;90.40;;;;;;6250456;28;20251;-59
2021/06/16 04:41:24;;;;;;;8.23;7.53;;;19.90;90.10;;;;;;6250899;28;20343;-60
2021/06/16 04:44:27;;;;;;;8.70;7.80;;;20.00;90.00;;;;;;6250729;28;20228;-61
2021/06/16 04:47:32;;;;;;;8.40;7.70;;;20.10;90.00;;;;;;6250400;28;20240;-60
2021/06/16 04:50:36;;;;;;;9.43;7.90;;;20.20;89.20;;;;;;6250639;28;20232;-60
2021/06/16 04:53:39;;;;;;;8.67;6.50;;;20.30;89.30;;;;;;6250371;28;20224;-60
2021/06/16 04:56:43;;;;;;;8.30;7.50;;;20.40;89.00;;;;;;6250407;28;20246;-60
2021/06/16 04:59:46;;;;;;;8.60;7.80;;;20.50;89.00;;;;;;6250627;28;20239;-63
2021/06/16 05:02:53;;;;;;;7.97;7.27;;;20.60;88.80;;;;;;6250277;28;20243;-59
2021/06/16 05:05:57;;;;;;;9.33;8.40;;;20.50;88.60;;;;;;6250413;28;20224;-63
2021/06/16 05:09:00;;;;;;;8.37;7.50;;;20.70;88.90;;;;;;6249974;28;20232;-62
2021/06/16 05:12:04;;;;;;;8.93;7.80;;;20.70;89.20;;;;;;6250132;28;20288;-63
2021/06/16 05:15:08;;;;;;;10.00;7.50;;;20.90;88.80;;;;;;6249818;28;20289;-63
2021/06/16 05:18:13;;;;;;;10.00;8.03;;;21.00;88.40;;;;;;6250078;28;20232;-63
2021/06/16 05:21:16;;;;;;;10.33;8.10;;;21.20;87.70;;;;;;6249405;28;20235;-63
2021/06/16 05:24:20;;;;;;;8.67;7.70;;;21.30;86.60;;;;;;6249760;28;20732;-64
2021/06/16 05:27:23;;;;;;;12.57;9.60;;;21.50;86.10;;;;;;6249807;28;20240;-62
2021/06/16 05:30:27;;;;;;;11.00;8.00;;;21.60;85.50;;;;;;6240544;28;20248;-62
2021/06/16 05:33:32;;;;;;;10.80;8.50;;;21.70;85.00;;;;;;6249395;28;20701;-63
2021/06/16 05:36:36;;;;;;;9.50;7.60;;;21.80;84.70;;;;;;6234492;28;20232;-61
2021/06/16 05:39:40;;;;;;;12.60;8.07;;;22.00;83.90;;;;;;6265615;28;20224;-60
2021/06/16 05:42:43;;;;;;;8.90;7.93;;;22.10;83.00;;;;;;6253435;28;20224;-61
2021/06/16 05:45:47;;;;;;;14.33;8.70;;;22.20;82.60;;;;;;6248895;28;20220;-59
2021/06/16 05:48:52;;;;;;;10.67;8.33;;;22.40;82.00;;;;;;6248095;28;20244;-60
2021/06/16 05:51:55;;;;;;;11.13;8.43;;;22.50;80.50;;;;;;6248293;28;20228;-59
2021/06/16 05:54:58;;;;;;;10.80;8.40;;;22.60;79.40;;;;;;6247738;28;20230;-61
2021/06/16 05:58:01;;;;;;;8.77;7.90;;;22.80;78.20;;;;;;6248047;28;20239;-62
2021/06/16 06:01:04;;;;;;;9.17;8.20;;;23.00;77.70;;;;;;6244597;28;20223;-62
2021/06/16 06:04:09;;;;;;;10.27;8.10;;;23.30;77.00;;;;;;6245195;28;20302;-62
2021/06/16 06:07:12;;;;;;;8.73;7.83;;;23.60;76.00;;;;;;6247228;28;20242;-63
2021/06/16 06:10:16;;;;;;;10.20;8.57;;;23.90;75.00;;;;;;6247697;28;20553;-63
2021/06/16 06:13:19;;;;;;;9.90;8.47;;;24.10;73.90;;;;;;6247499;28;20220;-62
2021/06/16 06:16:22;;;;;;;11.50;8.00;;;24.60;72.60;;;;;;6247544;28;20657;-62
2021/06/16 06:19:27;;;;;;;8.27;7.30;;;25.00;71.00;;;;;;6247209;28;20224;-62
2021/06/16 06:22:30;;;;;;;9.20;7.67;;;25.20;70.20;;;;;;6248128;28;20231;-62
2021/06/16 06:25:33;;;;;;;12.17;8.40;;;25.30;69.00;;;;;;6247764;28;20227;-62
2021/06/16 06:28:38;;;;;;;11.80;8.30;;;25.40;67.70;;;;;;6248110;28;20235;-63
2021/06/16 06:31:42;;;;;;;9.73;8.30;;;25.80;68.00;;;;;;6248515;28;20241;-62
2021/06/16 06:34:46;;;;;;;8.87;7.97;;;26.20;66.60;;;;;;6252991;28;20704;-63
2021/06/16 06:37:49;;;;;;;8.40;7.60;;;27.10;63.80;;;;;;6278394;28;20233;-64
2021/06/16 06:40:53;;;;;;;9.30;7.50;;;27.90;60.10;;;;;;6276426;28;20628;-63
2021/06/16 06:43:56;;;;;;;9.30;7.60;;;28.50;57.80;;;;;;6253839;28;20196;-63
2021/06/16 06:46:59;;;;;;;8.87;7.40;;;28.70;57.10;;;;;;6253580;28;20230;-63
2021/06/16 06:50:11;;;;;;;9.23;7.10;;;29.20;56.10;;;;;;6253230;28;20223;-64
2021/06/16 06:53:17;;;;;;;10.97;7.63;;;29.90;54.70;;;;;;6253332;28;20650;-62
2021/06/16 06:56:22;;;;;;;7.70;7.00;;;30.50;53.00;;;;;;6253413;28;20254;-64
2021/06/16 06:59:28;;;;;;;7.97;7.17;;;31.10;51.10;;;;;;6253290;28;20239;-62
2021/06/16 07:02:31;;;;;;;8.97;6.80;;;31.50;49.60;;;;;;6252886;28;20236;-62
2021/06/16 07:05:36;;;;;;;8.48;7.68;;;31.90;48.60;;;;;;6252759;28;20232;-62
2021/06/16 07:08:39;;;;;;;7.72;6.97;;;32.40;46.60;;;;;;6252810;28;20571;-63
2021/06/16 07:11:42;;;;;;;11.32;7.85;;;33.00;44.80;;;;;;6252849;28;20232;-62
2021/06/16 07:14:46;;;;;;;8.32;7.20;;;33.50;44.60;;;;;;6252844;28;20242;-63
2021/06/16 07:17:49;;;;;;;8.40;6.78;;;34.30;43.40;;;;;;6252189;28;20310;-63
2021/06/16 07:20:54;;;;;;;12.60;7.40;;;35.00;42.00;;;;;;6251907;28;20803;-63
2021/06/16 07:23:58;;;;;;;12.43;9.02;;;35.50;41.20;;;;;;6252122;28;20215;-62
2021/06/16 07:27:01;;;;;;;8.80;7.80;;;36.10;40.70;;;;;;6249273;28;21130;-62
2021/06/16 07:30:06;;;;;;;11.00;7.85;;;36.40;40.20;;;;;;6250771;28;20681;-64
2021/06/16 07:33:11;;;;;;;8.50;6.57;;;37.00;39.00;;;;;;6251242;28;20220;-63
2021/06/16 07:36:16;;;;;;;7.15;6.43;;;37.10;37.70;;;;;;6246557;28;20558;-63
2021/06/16 07:39:19;;;;;;;7.70;6.32;;;37.30;37.30;;;;;;6251338;28;20235;-63
2021/06/16 07:42:23;;;;;;;8.15;5.68;;;37.10;37.00;;;;;;6251625;28;20234;-63
2021/06/16 07:45:26;;;;;;;6.97;6.20;;;36.20;37.90;;;;;;6251290;28;20223;-61
2021/06/16 07:48:29;;;;;;;7.22;6.50;;;35.90;38.30;;;;;;6251628;28;20242;-60
2021/06/16 07:51:34;;;;;;;6.57;5.95;;;35.60;38.00;;;;;;6251607;28;20246;-62
2021/06/16 07:54:37;;;;;;;7.50;5.47;;;35.20;38.40;;;;;;6251189;28;20239;-60
2021/06/16 07:57:41;;;;;;;6.88;6.20;;;34.70;39.00;;;;;;6250573;28;20238;-59
2021/06/16 08:00:44;;;;;;;7.93;5.63;;;34.10;40.00;;;;;;6251608;28;20243;-60
2021/06/16 08:03:47;;;;;;;7.13;6.43;;;33.50;39.40;;;;;;6251615;28;20729;-60
2021/06/16 08:06:52;;;;;;;6.68;6.07;;;33.00;40.90;;;;;;6251120;28;20682;-58
2021/06/16 08:09:56;;;;;;;5.80;5.40;;;32.40;41.00;;;;;;6251514;28;20685;-60
2021/06/16 08:12:59;;;;;;;7.72;6.47;;;31.90;42.40;;;;;;6249520;28;20234;-60
2021/06/16 08:16:02;;;;;;;6.70;5.60;;;31.70;42.80;;;;;;6251377;28;20560;-61
2021/06/16 08:19:06;;;;;;;7.18;6.47;;;31.60;43.30;;;;;;6250824;28;20232;-61
2021/06/16 08:22:13;;;;;;;6.75;5.43;;;31.30;43.70;;;;;;6251308;28;20242;-60
2021/06/16 08:25:17;;;;;;;6.95;6.07;;;31.10;44.20;;;;;;6251009;28;20227;-62
2021/06/16 08:28:20;;;;;;;6.13;5.63;;;30.90;43.50;;;;;;6246277;28;20243;-60
2021/06/16 08:31:24;;;;;;;8.85;5.70;;;30.70;44.20;;;;;;6250689;28;20236;-64
2021/06/16 08:34:27;;;;;;;6.20;5.70;;;30.60;44.70;;;;;;6250538;28;20707;-60
2021/06/16 08:37:32;;;;;;;6.43;5.75;;;30.50;44.40;;;;;;6244970;28;20242;-60
2021/06/16 08:40:36;;;;;;;7.47;6.30;;;30.30;45.40;;;;;;6232098;28;20258;-58
2021/06/16 08:43:41;;;;;;;5.90;5.40;;;30.40;46.30;;;;;;6231489;28;20234;-60
2021/06/16 08:46:44;;;;;;;6.40;5.80;;;30.20;45.90;;;;;;6248334;28;20231;-60
2021/06/16 08:49:48;;;;;;;5.80;5.27;;;30.20;45.70;;;;;;6248482;28;20660;-59
2021/06/16 08:52:53;;;;;;;5.93;5.43;;;30.20;45.40;;;;;;6246096;28;20200;-58
2021/06/16 08:55:56;;;;;;;8.93;5.70;;;30.20;45.80;;;;;;6258561;28;20234;-60
2021/06/16 08:58:59;;;;;;;8.03;5.70;;;30.20;45.20;;;;;;6248071;28;20211;-59
2021/06/16 09:02:03;;;;;;;7.00;5.30;;;30.00;44.80;;;;;;6247912;28;20246;-61
2021/06/16 09:05:08;;;;;;;6.50;5.50;;;30.10;45.70;;;;;;6247348;28;20243;-60
2021/06/16 09:08:18;;;;;;;5.37;4.87;;;30.30;45.30;;;;;;6246206;28;20238;-60
2021/06/16 09:11:24;;;;;;;5.53;5.03;;;30.20;45.20;;;;;;6223088;28;20232;-60
2021/06/16 09:14:27;;;;;;;6.73;6.10;;;30.30;45.80;;;;;;6223692;28;20228;-64
2021/06/16 09:17:30;;;;;;;6.00;5.50;;;30.40;45.60;;;;;;6222599;28;20593;-65
2021/06/16 09:20:41;;;;;;;5.90;5.40;;;30.50;45.90;;;;;;6242177;28;20310;-65
2021/06/16 09:23:45;;;;;;;6.33;5.70;;;30.30;46.30;;;;;;6247661;28;20223;-64
2021/06/16 09:26:48;;;;;;;7.73;5.80;;;30.30;46.80;;;;;;6247707;28;20677;-64
2021/06/16 09:29:52;;;;;;;6.13;5.43;;;30.40;46.70;;;;;;6247080;28;20294;-63
2021/06/16 09:32:58;;;;;;;6.73;6.00;;;30.50;46.40;;;;;;6248579;28;20688;-62
2021/06/16 09:36:02;;;;;;;8.47;7.23;;;30.50;47.00;;;;;;6247670;28;20611;-64
2021/06/16 09:39:10;;;;;;;7.82;6.68;;;30.60;48.00;;;;;;6249391;28;20235;-62
2021/06/16 09:42:14;;;;;;;8.20;7.40;;;30.60;48.50;;;;;;6249425;28;20247;-60
2021/06/16 09:45:18;;;;;;;7.80;7.17;;;30.40;48.80;;;;;;6240238;28;20572;-58
2021/06/16 09:48:28;;;;;;;7.22;6.63;;;30.10;49.10;;;;;;6248888;28;20573;-60
2021/06/16 09:51:35;;;;;;;7.53;6.83;;;30.20;49.90;;;;;;6248885;28;20239;-60
2021/06/16 09:54:40;;;;;;;9.10;7.03;;;30.50;49.80;;;;;;6249306;28;20322;-59
2021/06/16 09:57:58;;;;;;;7.47;6.77;;;30.60;48.70;;;;;;6248895;28;20231;-60
2021/06/16 10:01:02;;;;;;;7.23;6.53;;;30.50;48.90;;;;;;6249220;28;20254;-60
2021/06/16 10:04:05;;;;;;;6.38;5.88;;;30.60;49.50;;;;;;6249347;28;20231;-59
2021/06/16 10:07:14;;;;;;;9.03;8.10;;;30.50;49.00;;;;;;6251010;28;20250;-58
2021/06/16 10:10:19;;;;;;;7.55;6.95;;;30.40;48.90;;;;;;6254246;28;20251;-60
2021/06/16 10:13:25;;;;;;;7.30;6.57;;;30.30;49.00;;;;;;6253512;28;20227;-59
2021/06/16 10:16:29;;;;;;;6.90;6.40;;;30.40;49.30;;;;;;6253991;28;20231;-60
2021/06/16 10:19:35;;;;;;;7.03;6.50;;;30.20;48.20;;;;;;6253672;28;20273;-61
2021/06/16 10:22:38;;;;;;;6.97;6.40;;;30.10;48.50;;;;;;6253849;28;20227;-61
2021/06/16 10:25:45;;;;;;;7.03;6.43;;;29.80;49.60;;;;;;6276910;28;20668;-59
2021/06/16 10:28:54;;;;;;;10.93;6.70;;;29.90;49.80;;;;;;6268004;28;20219;-60
2021/06/16 10:32:04;;;;;;;7.10;6.60;;;29.90;50.00;;;;;;6278186;28;20188;-59
2021/06/16 10:35:15;;;;;;;7.60;6.90;;;30.10;49.80;;;;;;6276269;28;20608;-60
2021/06/16 10:38:20;;;;;;;7.00;6.40;;;30.20;48.10;;;;;;6278000;28;20236;-60
2021/06/16 10:41:56;;;;;;;6.57;5.93;;;30.30;48.70;;;;;;6277764;28;20234;-62
2021/06/16 10:45:19;;;;;;;6.87;6.27;;;30.20;47.90;;;;;;6277896;28;20231;-60
2021/06/16 10:48:23;;;;;;;6.73;6.10;;;30.30;48.50;;;;;;6272077;28;20242;-59
2021/06/16 10:51:43;;;;;;;6.20;5.70;;;30.10;47.30;;;;;;6276911;28;20227;-61
2021/06/16 10:54:55;;;;;;;6.23;5.80;;;30.10;47.40;;;;;;6277162;28;20234;-61
2021/06/16 11:01:25;;;;;;;6.37;5.77;;;30.30;46.50;;;;;;6354026;27;20310;-60
2021/06/16 11:04:30;;;;;;;6.17;5.20;;;31.00;45.10;;;;;;6334417;28;20278;-60
2021/06/16 11:07:39;;;;;;;5.23;4.77;;;31.20;43.70;;;;;;6341412;28;20236;-58
2021/06/16 11:10:54;;;;;;;8.73;5.35;;;31.10;43.70;;;;;;6295606;28;20704;-59
2021/06/16 11:13:57;;;;;;;8.77;7.83;;;30.80;44.80;;;;;;6295595;28;20221;-62
2021/06/16 11:17:02;;;;;;;5.00;4.70;;;30.90;44.80;;;;;;6296060;28;20226;-62
2021/06/16 11:20:07;;;;;;;5.07;4.57;;;30.80;43.60;;;;;;6303261;28;20238;-62
2021/06/16 11:23:23;;;;;;;5.05;4.60;;;30.80;43.90;;;;;;6306223;28;20222;-61
2021/06/16 11:26:42;;;;;;;5.53;4.93;;;31.10;42.50;;;;;;6317201;28;20233;-61
2021/06/16 11:30:07;;;;;;;5.82;5.32;;;31.20;42.90;;;;;;6318113;28;20230;-59
2021/06/16 11:33:32;;;;;;;6.93;6.23;;;30.60;43.40;;;;;;6320308;28;20233;-62
2021/06/16 11:36:39;;;;;;;4.87;4.47;;;30.20;43.60;;;;;;6314887;28;20229;-62
2021/06/16 11:39:43;;;;;;;5.63;5.20;;;30.30;44.00;;;;;;6319686;28;20565;-62
2021/06/16 11:42:46;;;;;;;5.82;5.38;;;30.30;44.20;;;;;;6319809;28;20225;-63
2021/06/16 11:45:49;;;;;;;5.90;5.40;;;30.30;43.70;;;;;;6319904;28;20225;-63
2021/06/16 11:49:03;;;;;;;5.60;5.20;;;30.30;43.70;;;;;;6319294;28;20674;-63
2021/06/16 11:52:07;;;;;;;5.93;5.07;;;30.30;44.00;;;;;;6320172;28;20689;-62
2021/06/16 11:55:11;;;;;;;5.80;4.93;;;30.20;44.50;;;;;;6319429;28;20236;-61
2021/06/16 11:58:33;;;;;;;5.17;4.73;;;30.10;45.00;;;;;;6319433;28;20248;-61
2021/06/16 12:01:37;;;;;;;5.53;5.03;;;30.00;44.20;;;;;;6319149;28;20226;-59
2021/06/16 12:04:46;;;;;;;5.83;5.30;;;30.20;44.00;;;;;;6319575;28;20230;-57
2021/06/16 12:07:52;;;;;;;5.30;4.90;;;30.30;43.90;;;;;;6319097;28;20241;-60
2021/06/16 12:10:56;;;;;;;6.53;5.00;;;30.60;44.40;;;;;;6313134;28;20202;-61
2021/06/16 12:14:06;;;;;;;5.10;4.65;;;30.80;44.00;;;;;;6302521;28;20187;-59
2021/06/16 12:17:09;;;;;;;5.07;4.67;;;30.80;43.50;;;;;;6302457;28;20230;-59
2021/06/16 12:20:15;;;;;;;6.82;5.07;;;30.90;43.70;;;;;;6301838;28;20248;-59
2021/06/16 12:23:31;;;;;;;5.55;5.15;;;30.80;43.70;;;;;;6302348;28;20222;-59
2021/06/16 12:26:35;;;;;;;6.03;5.47;;;30.80;44.10;;;;;;6301611;28;20238;-59
2021/06/16 12:29:46;;;;;;;5.87;5.40;;;30.50;43.60;;;;;;6301342;28;20230;-58
2021/06/16 12:33:12;;;;;;;5.72;5.22;;;30.30;43.90;;;;;;6284455;28;20223;-57
2021/06/16 12:36:22;;;;;;;6.27;4.90;;;30.50;43.70;;;;;;6287819;28;20305;-57
2021/06/16 12:39:32;;;;;;;5.57;5.00;;;30.40;43.70;;;;;;6300881;28;20223;-57
2021/06/16 12:42:41;;;;;;;5.57;4.60;;;30.50;43.80;;;;;;6287842;28;20227;-59
2021/06/16 12:45:44;;;;;;;5.15;4.47;;;30.50;43.30;;;;;;6291175;28;20249;-58
2021/06/16 12:48:47;;;;;;;4.20;3.90;;;30.60;43.40;;;;;;6294816;28;20552;-58
2021/06/16 12:51:54;;;;;;;5.07;4.60;;;30.60;42.30;;;;;;6286929;28;20226;-57
2021/06/16 12:55:10;;;;;;;4.37;3.97;;;30.40;42.80;;;;;;6285906;28;20230;-58
2021/06/16 12:58:15;;;;;;;3.50;3.30;;;30.30;43.10;;;;;;6284714;28;20620;-59
2021/06/16 13:01:21;;;;;;;4.87;4.47;;;30.30;43.00;;;;;;6287247;28;20219;-58
2021/06/16 13:04:43;;;;;;;6.70;5.00;;;30.30;43.00;;;;;;6289760;28;20234;-58
2021/06/16 13:07:49;;;;;;;4.40;4.10;;;30.20;43.00;;;;;;6288579;28;20694;-57
2021/06/16 13:10:52;;;;;;;4.13;3.77;;;30.20;42.50;;;;;;6287681;28;20207;-57
2021/06/16 13:14:16;;;;;;;4.63;3.73;;;30.30;41.10;;;;;;6296603;28;20198;-56
2021/06/16 13:17:19;;;;;;;3.90;3.50;;;30.20;40.60;;;;;;6300943;28;20317;-59
2021/06/16 13:20:33;;;;;;;4.70;4.10;;;30.20;41.30;;;;;;6300658;28;20238;-58
2021/06/16 13:23:38;;;;;;;4.80;4.23;;;30.20;41.40;;;;;;6299775;28;20268;-58
2021/06/16 13:26:41;;;;;;;4.33;3.93;;;30.10;42.20;;;;;;6300421;28;20544;-59
2021/06/16 13:29:45;;;;;;;4.03;3.63;;;30.10;42.00;;;;;;6300484;28;20272;-60
2021/06/16 13:32:49;;;;;;;4.47;4.03;;;30.00;41.90;;;;;;6300596;28;20230;-60
2021/06/16 13:35:52;;;;;;;4.00;3.70;;;30.00;42.40;;;;;;6299951;28;20614;-58
2021/06/16 13:38:57;;;;;;;3.63;3.33;;;30.10;41.60;;;;;;6300292;28;20241;-56
2021/06/16 13:42:00;;;;;;;4.73;4.17;;;29.70;41.50;;;;;;6300293;28;20230;-58
2021/06/16 13:45:04;;;;;;;6.53;3.33;;;29.30;42.10;;;;;;6300423;28;20237;-56
2021/06/16 13:48:10;;;;;;;5.40;3.70;;;29.40;42.50;;;;;;6300048;28;20230;-58
2021/06/16 13:51:13;;;;;;;3.27;2.97;;;29.50;41.50;;;;;;6297726;28;20233;-61
2021/06/16 13:54:20;;;;;;;3.30;3.10;;;29.60;40.80;;;;;;6299978;28;20232;-59
2021/06/16 13:57:23;;;;;;;3.70;3.40;;;29.70;40.40;;;;;;6293358;28;20217;-58
2021/06/16 14:00:26;;;;;;;5.30;3.50;;;29.70;40.30;;;;;;6288056;28;20222;-58
2021/06/16 14:03:30;;;;;;;3.50;3.30;;;29.80;40.30;;;;;;6291696;28;20230;-59
2021/06/16 14:06:34;;;;;;;3.13;2.87;;;29.90;40.00;;;;;;6306234;28;20252;-59
2021/06/16 14:09:38;;;;;;;4.50;3.00;;;29.70;40.30;;;;;;6309264;28;20226;-60
2021/06/16 14:12:42;;;;;;;3.70;3.40;;;29.40;40.10;;;;;;6298961;28;20226;-58
2021/06/16 14:15:45;;;;;;;3.90;2.97;;;29.40;40.10;;;;;;6299428;28;20276;-58
2021/06/16 14:18:49;;;;;;;3.40;3.10;;;29.40;40.10;;;;;;6299308;28;20230;-59
2021/06/16 14:21:53;;;;;;;4.13;3.73;;;29.50;40.00;;;;;;6298580;28;20226;-59
2021/06/16 14:24:58;;;;;;;3.90;2.83;;;29.50;40.00;;;;;;6299117;28;20237;-59
2021/06/16 14:28:01;;;;;;;3.20;2.60;;;29.60;39.30;;;;;;6299348;28;20241;-59
2021/06/16 14:31:04;;;;;;;3.23;2.60;;;29.60;39.30;;;;;;6299237;28;20226;-59
2021/06/16 14:34:08;;;;;;;2.33;2.13;;;29.80;37.90;;;;;;6298634;28;20573;-58
2021/06/16 14:37:12;;;;;;;3.93;2.57;;;29.90;38.00;;;;;;6299009;28;20237;-59
2021/06/16 14:40:17;;;;;;;2.97;2.77;;;29.80;38.10;;;;;;6319860;28;20249;-60
2021/06/16 14:43:21;;;;;;;2.80;2.50;;;29.90;36.90;;;;;;6302686;28;20226;-58
2021/06/16 14:46:24;;;;;;;2.10;1.90;;;29.80;36.50;;;;;;6321038;28;20572;-59
2021/06/16 14:49:27;;;;;;;3.30;2.20;;;29.80;36.10;;;;;;6298196;28;20349;-58
2021/06/16 14:52:31;;;;;;;2.53;2.30;;;29.60;35.50;;;;;;6285509;28;20218;-58
2021/06/16 14:55:35;;;;;;;2.40;2.20;;;29.40;35.00;;;;;;6281962;28;20356;-58
2021/06/16 14:58:39;;;;;;;2.40;2.20;;;29.20;35.00;;;;;;6298424;28;20241;-59
2021/06/16 15:01:42;;;;;;;2.20;2.00;;;29.30;35.20;;;;;;6281627;28;20229;-59
2021/06/16 15:05:06;;;;;;;1.90;1.70;;;29.40;35.10;;;;;;6282148;28;20328;-59
2021/06/16 15:08:10;;;;;;;2.20;2.00;;;29.50;33.70;;;;;;6282186;28;20222;-59
2021/06/16 15:11:15;;;;;;;4.97;2.23;;;29.70;34.50;;;;;;6282241;28;20223;-59
2021/06/16 15:14:18;;;;;;;2.83;1.80;;;29.80;34.60;;;;;;6289001;28;20605;-59
2021/06/16 15:17:22;;;;;;;2.20;1.70;;;29.90;34.20;;;;;;6290151;28;20241;-58
2021/06/16 15:20:25;;;;;;;1.80;1.70;;;29.70;33.20;;;;;;6283497;28;20592;-59
2021/06/16 15:23:29;;;;;;;1.83;1.67;;;29.70;34.20;;;;;;6283524;28;20566;-59
2021/06/16 15:26:35;;;;;;;3.40;2.10;;;29.90;34.00;;;;;;6287285;28;20227;-59
2021/06/16 15:29:40;;;;;;;3.20;2.40;;;30.10;34.30;;;;;;6293776;28;20219;-59
2021/06/16 15:32:44;;;;;;;1.90;1.80;;;30.10;34.10;;;;;;6285556;28;20227;-59
2021/06/16 15:35:47;;;;;;;2.93;2.40;;;30.00;35.10;;;;;;6294521;28;20305;-59
2021/06/16 15:38:51;;;;;;;2.10;1.90;;;29.90;33.90;;;;;;6298221;28;20238;-59
2021/06/16 15:41:56;;;;;;;2.60;1.90;;;29.70;34.40;;;;;;6297966;28;20244;-59
2021/06/16 15:44:59;;;;;;;2.10;1.90;;;29.50;35.00;;;;;;6297342;28;20229;-58
2021/06/16 15:48:03;;;;;;;4.40;2.30;;;29.40;34.90;;;;;;6299730;28;20226;-57
2021/06/16 15:51:08;;;;;;;3.07;2.20;;;29.70;35.00;;;;;;6299349;28;20240;-57
2021/06/16 15:54:14;;;;;;;4.10;2.37;;;29.80;34.90;;;;;;6299850;28;20230;-60
2021/06/16 15:57:19;;;;;;;1.83;1.73;;;29.80;34.90;;;;;;6299954;28;20321;-59
2021/06/16 16:00:24;;;;;;;5.93;2.83;;;29.90;34.50;;;;;;6299952;28;20264;-57
2021/06/16 16:03:27;;;;;;;5.23;2.50;;;29.60;34.90;;;;;;6302339;28;20234;-58
2021/06/16 16:06:31;;;;;;;2.80;2.30;;;29.50;35.20;;;;;;6300286;28;20242;-57